Time;durP1;ratioP1;P1;durP2;ratioP2;P2;SDS_P1;SDS_P2;PMS_P1;PMS_P2;Temp;Humidity;BMP_temperature;BMP_pressure;BME280_temperature;BME280_humidity;BME280_pressure;Samples;Min_cycle;Max_cycle;Signal;HPM_P1;HPM_P2
2021/04/19 00:01:31;;;;;;;8.90;5.95;;;;;;;;;;5022025;28;21049;-54
2021/04/19 00:03:58;;;;;;;8.45;5.45;;;;;;;;;;5021959;28;20045;-55
2021/04/19 00:06:24;;;;;;;7.53;4.88;;;;;;;;;;5022793;28;20477;-55
2021/04/19 00:08:49;;;;;;;8.13;4.07;;;;;;;;;;5023237;28;20067;-54
2021/04/19 00:11:15;;;;;;;10.10;6.35;;;;;;;;;;5023295;28;20038;-55
2021/04/19 00:13:42;;;;;;;10.82;7.22;;;;;;;;;;5021070;28;20042;-53
2021/04/19 00:16:08;;;;;;;8.82;5.70;;;;;;;;;;5020738;28;20052;-54
2021/04/19 00:18:34;;;;;;;8.73;5.38;;;;;;;;;;5033722;28;20040;-52
2021/04/19 00:21:00;;;;;;;8.05;5.40;;;;;;;;;;5023138;28;20287;-55
2021/04/19 00:23:26;;;;;;;5.95;3.70;;;;;;;;;;5020729;28;20160;-56
2021/04/19 00:25:52;;;;;;;9.73;5.20;;;;;;;;;;5017864;28;20435;-56
2021/04/19 00:28:18;;;;;;;8.43;5.03;;;;;;;;;;5018719;28;20447;-56
2021/04/19 00:30:44;;;;;;;10.00;6.43;;;;;;;;;;4999910;28;20053;-57
2021/04/19 00:33:10;;;;;;;9.40;6.43;;;;;;;;;;5017953;28;20390;-55
2021/04/19 00:35:35;;;;;;;8.38;5.30;;;;;;;;;;5017491;28;20045;-55
2021/04/19 00:38:01;;;;;;;8.90;5.85;;;;;;;;;;5018885;28;20526;-56
2021/04/19 00:40:27;;;;;;;7.30;4.28;;;;;;;;;;5016564;28;20038;-52
2021/04/19 00:42:54;;;;;;;8.80;5.85;;;;;;;;;;5018058;28;20053;-55
2021/04/19 00:45:20;;;;;;;6.88;4.57;;;;;;;;;;5016377;28;20049;-52
2021/04/19 00:47:46;;;;;;;9.23;5.28;;;;;;;;;;5017906;28;20554;-54
2021/04/19 00:50:24;;;;;;;9.55;6.20;;;;;;;;;;5012734;28;20041;-58
2021/04/19 00:52:50;;;;;;;8.82;5.68;;;;;;;;;;5014153;28;20041;-55
2021/04/19 00:55:16;;;;;;;7.88;4.60;;;;;;;;;;5015408;28;20083;-56
2021/04/19 00:57:42;;;;;;;9.05;5.75;;;;;;;;;;5016837;28;20053;-54
2021/04/19 01:00:11;;;;;;;8.20;4.55;;;;;;;;;;5017338;28;20441;-56
2021/04/19 01:02:38;;;;;;;9.15;4.78;;;;;;;;;;5016401;28;22015;-53
2021/04/19 01:05:06;;;;;;;7.68;4.90;;;;;;;;;;5017359;28;20045;-53
2021/04/19 01:07:32;;;;;;;6.40;3.70;;;;;;;;;;5014401;28;20034;-52
2021/04/19 01:09:58;;;;;;;6.13;3.17;;;;;;;;;;5018882;28;20046;-54
2021/04/19 01:12:23;;;;;;;7.03;4.25;;;;;;;;;;5017030;28;20172;-53
2021/04/19 01:14:49;;;;;;;9.45;4.28;;;;;;;;;;5012495;28;20175;-53
2021/04/19 01:17:15;;;;;;;7.20;4.30;;;;;;;;;;5011083;28;20047;-56
2021/04/19 01:19:41;;;;;;;8.20;4.72;;;;;;;;;;5015544;28;20057;-56
2021/04/19 01:22:07;;;;;;;10.63;5.80;;;;;;;;;;5016752;28;20052;-54
2021/04/19 01:24:33;;;;;;;9.80;5.40;;;;;;;;;;5016760;28;20053;-57
2021/04/19 01:26:59;;;;;;;7.43;4.95;;;;;;;;;;5015940;28;20037;-56
2021/04/19 01:29:25;;;;;;;8.15;5.18;;;;;;;;;;5015656;28;20076;-56
2021/04/19 01:31:51;;;;;;;9.38;5.05;;;;;;;;;;5016088;28;20074;-54
2021/04/19 01:34:16;;;;;;;8.23;4.65;;;;;;;;;;5018406;28;20091;-56
2021/04/19 01:36:44;;;;;;;9.05;5.28;;;;;;;;;;5013586;28;20034;-54
2021/04/19 01:39:16;;;;;;;7.78;4.30;;;;;;;;;;5017033;28;20037;-54
2021/04/19 01:41:42;;;;;;;7.45;4.25;;;;;;;;;;5013881;28;20597;-56
2021/04/19 01:44:08;;;;;;;8.73;5.28;;;;;;;;;;5017294;28;20090;-56
2021/04/19 01:46:34;;;;;;;8.90;5.18;;;;;;;;;;5016301;28;20040;-55
2021/04/19 01:49:00;;;;;;;8.48;5.13;;;;;;;;;;5027935;28;20049;-52
2021/04/19 01:51:28;;;;;;;9.93;5.45;;;;;;;;;;5019442;28;20049;-55
2021/04/19 01:53:54;;;;;;;8.85;5.05;;;;;;;;;;5018792;28;20537;-54
2021/04/19 01:56:20;;;;;;;9.13;5.47;;;;;;;;;;5016797;28;20041;-53
2021/04/19 01:58:46;;;;;;;8.63;5.20;;;;;;;;;;5018192;28;20518;-55
2021/04/19 02:01:12;;;;;;;10.18;5.75;;;;;;;;;;5015539;28;20060;-52
2021/04/19 02:03:53;;;;;;;11.13;5.20;;;;;;;;;;5014430;28;20050;-53
2021/04/19 02:06:31;;;;;;;9.02;5.22;;;;;;;;;;5012696;28;20037;-55
2021/04/19 02:08:59;;;;;;;9.00;4.70;;;;;;;;;;5014249;28;21445;-53
2021/04/19 02:11:25;;;;;;;8.93;5.35;;;;;;;;;;5012144;28;20052;-53
2021/04/19 02:13:57;;;;;;;10.70;5.97;;;;;;;;;;5015764;28;20038;-56
2021/04/19 02:16:27;;;;;;;9.80;4.97;;;;;;;;;;5012556;28;20044;-53
2021/04/19 02:19:08;;;;;;;7.35;4.25;;;;;;;;;;5016564;28;20037;-54
2021/04/19 02:21:34;;;;;;;9.05;5.18;;;;;;;;;;5015397;28;20049;-54
2021/04/19 02:24:03;;;;;;;9.38;5.57;;;;;;;;;;5015355;28;21184;-53
2021/04/19 02:26:30;;;;;;;8.75;4.90;;;;;;;;;;5015570;28;20420;-56
2021/04/19 02:29:03;;;;;;;9.30;5.47;;;;;;;;;;5014288;28;20538;-54
2021/04/19 02:31:33;;;;;;;8.73;5.35;;;;;;;;;;5014876;28;20092;-54
2021/04/19 02:34:00;;;;;;;9.10;5.32;;;;;;;;;;5016137;28;20529;-55
2021/04/19 02:36:28;;;;;;;8.45;4.93;;;;;;;;;;5014783;28;20433;-56
2021/04/19 02:38:54;;;;;;;9.27;5.78;;;;;;;;;;5016152;28;20052;-54
2021/04/19 02:41:23;;;;;;;14.15;4.72;;;;;;;;;;5012847;28;20041;-52
2021/04/19 02:43:49;;;;;;;8.90;4.85;;;;;;;;;;5016186;28;20041;-54
2021/04/19 02:46:18;;;;;;;10.15;5.90;;;;;;;;;;5011427;28;20041;-57
2021/04/19 02:48:45;;;;;;;13.38;5.75;;;;;;;;;;5012504;28;20052;-55
2021/04/19 02:51:11;;;;;;;10.23;5.70;;;;;;;;;;5015989;28;20641;-55
2021/04/19 02:53:39;;;;;;;10.27;6.20;;;;;;;;;;5013581;28;20041;-55
2021/04/19 02:56:06;;;;;;;10.35;6.03;;;;;;;;;;5013957;28;20114;-55
2021/04/19 02:58:38;;;;;;;9.63;5.80;;;;;;;;;;5014940;28;20049;-55
2021/04/19 03:01:08;;;;;;;11.10;6.03;;;;;;;;;;5015959;28;20037;-55
2021/04/19 03:03:35;;;;;;;9.55;5.88;;;;;;;;;;5015146;28;20057;-52
2021/04/19 03:06:03;;;;;;;14.70;6.03;;;;;;;;;;5017686;28;20049;-52
2021/04/19 03:08:31;;;;;;;13.63;5.95;;;;;;;;;;5021002;28;20029;-56
2021/04/19 03:11:32;;;;;;;16.17;5.38;;;;;;;;;;5018955;28;20647;-55
2021/04/19 03:13:59;;;;;;;9.75;5.13;;;;;;;;;;4996604;28;20092;-56
2021/04/19 03:16:27;;;;;;;10.88;6.47;;;;;;;;;;5018498;28;20037;-55
2021/04/19 03:18:53;;;;;;;11.52;6.22;;;;;;;;;;5019419;28;20417;-53
2021/04/19 03:21:21;;;;;;;12.93;6.15;;;;;;;;;;5018795;28;20030;-54
2021/04/19 03:23:51;;;;;;;11.57;6.00;;;;;;;;;;5018688;28;20313;-53
2021/04/19 03:26:18;;;;;;;11.52;6.55;;;;;;;;;;5016802;28;20037;-54
2021/04/19 03:28:45;;;;;;;14.30;6.75;;;;;;;;;;5017968;28;20869;-56
2021/04/19 03:31:14;;;;;;;13.35;6.75;;;;;;;;;;5018282;28;20464;-55
2021/04/19 03:33:41;;;;;;;14.23;6.70;;;;;;;;;;5019079;28;20041;-55
2021/04/19 03:36:08;;;;;;;11.35;6.15;;;;;;;;;;5020488;28;20033;-54
2021/04/19 03:38:34;;;;;;;13.85;7.25;;;;;;;;;;5018225;28;20406;-53
2021/04/19 03:41:00;;;;;;;17.00;7.47;;;;;;;;;;5017410;28;20038;-53
2021/04/19 03:43:26;;;;;;;13.63;7.15;;;;;;;;;;5017637;28;20053;-54
2021/04/19 03:45:55;;;;;;;14.70;7.07;;;;;;;;;;5018917;28;20407;-54
2021/04/19 03:48:22;;;;;;;14.57;6.80;;;;;;;;;;5018100;28;20144;-55
2021/04/19 03:50:55;;;;;;;13.77;7.50;;;;;;;;;;5018670;28;20510;-55
2021/04/19 03:53:22;;;;;;;12.57;5.07;;;;;;;;;;5018473;28;20048;-57
2021/04/19 03:55:48;;;;;;;13.25;7.03;;;;;;;;;;5016775;28;20076;-56
2021/04/19 03:58:14;;;;;;;12.80;7.05;;;;;;;;;;5019024;28;20037;-56
2021/04/19 04:00:41;;;;;;;20.13;7.32;;;;;;;;;;5017687;28;20111;-54
2021/04/19 04:03:08;;;;;;;14.23;7.63;;;;;;;;;;5012105;28;20049;-55
2021/04/19 04:05:34;;;;;;;14.05;7.72;;;;;;;;;;5018363;28;20121;-56
2021/04/19 04:08:00;;;;;;;16.65;7.57;;;;;;;;;;5019408;28;20061;-53
2021/04/19 04:10:27;;;;;;;16.38;7.13;;;;;;;;;;5015330;28;20171;-52
2021/04/19 04:12:53;;;;;;;16.20;7.70;;;;;;;;;;5018642;28;20045;-53
2021/04/19 04:15:19;;;;;;;17.23;7.85;;;;;;;;;;5016873;28;20769;-54
2021/04/19 04:17:45;;;;;;;15.57;7.80;;;;;;;;;;5018767;28;20046;-56
2021/04/19 04:20:12;;;;;;;16.88;8.00;;;;;;;;;;5019468;28;20053;-56
2021/04/19 04:22:38;;;;;;;19.30;9.15;;;;;;;;;;5017438;28;20038;-57
2021/04/19 04:25:05;;;;;;;14.75;7.78;;;;;;;;;;5016727;28;20045;-55
2021/04/19 04:27:31;;;;;;;16.23;8.13;;;;;;;;;;5015898;28;20315;-54
2021/04/19 04:29:56;;;;;;;17.85;8.18;;;;;;;;;;5033021;28;20045;-56
2021/04/19 04:32:22;;;;;;;16.33;7.53;;;;;;;;;;5006085;28;20037;-57
2021/04/19 04:34:48;;;;;;;12.98;6.75;;;;;;;;;;5016756;28;20083;-55
2021/04/19 04:37:14;;;;;;;13.98;7.40;;;;;;;;;;5017941;28;20056;-54
2021/04/19 04:39:40;;;;;;;13.60;7.45;;;;;;;;;;5016271;28;20056;-54
2021/04/19 04:42:09;;;;;;;13.38;6.85;;;;;;;;;;5016437;28;20108;-54
2021/04/19 04:44:40;;;;;;;12.68;6.47;;;;;;;;;;5016756;28;20059;-54
2021/04/19 04:47:24;;;;;;;12.02;6.25;;;;;;;;;;5018687;28;20037;-57
2021/04/19 04:49:56;;;;;;;12.10;6.60;;;;;;;;;;5017863;28;20129;-55
2021/04/19 04:52:22;;;;;;;14.80;6.65;;;;;;;;;;5016341;28;21011;-56
2021/04/19 04:54:49;;;;;;;13.18;6.38;;;;;;;;;;5017982;28;20045;-53
2021/04/19 04:57:20;;;;;;;14.82;6.00;;;;;;;;;;5017231;28;20219;-56
2021/04/19 04:59:48;;;;;;;13.57;6.32;;;;;;;;;;5017991;28;20494;-56
2021/04/19 05:02:16;;;;;;;9.68;5.43;;;;;;;;;;5018053;28;20046;-55
2021/04/19 05:04:42;;;;;;;11.35;6.00;;;;;;;;;;5014908;28;20139;-55
2021/04/19 05:07:08;;;;;;;10.93;5.50;;;;;;;;;;5018116;28;20040;-55
2021/04/19 05:09:34;;;;;;;10.20;5.10;;;;;;;;;;5018536;28;20033;-57
2021/04/19 05:12:00;;;;;;;9.07;4.68;;;;;;;;;;5015251;28;20156;-54
2021/04/19 05:14:26;;;;;;;8.57;4.70;;;;;;;;;;5017522;28;20481;-56
2021/04/19 05:16:52;;;;;;;8.98;4.95;;;;;;;;;;5018753;28;20033;-55
2021/04/19 05:19:18;;;;;;;10.10;5.22;;;;;;;;;;5019667;28;20048;-55
2021/04/19 05:21:44;;;;;;;8.93;5.00;;;;;;;;;;5017094;28;20371;-55
2021/04/19 05:24:10;;;;;;;10.00;4.90;;;;;;;;;;5017646;28;20057;-56
2021/04/19 05:26:36;;;;;;;7.78;4.38;;;;;;;;;;5017906;28;20038;-56
2021/04/19 05:29:02;;;;;;;8.07;4.43;;;;;;;;;;5022964;28;20077;-54
2021/04/19 05:31:28;;;;;;;7.72;4.05;;;;;;;;;;5020099;28;20510;-54
2021/04/19 05:33:56;;;;;;;7.18;3.75;;;;;;;;;;5018963;28;20041;-55
2021/04/19 05:36:23;;;;;;;7.30;3.83;;;;;;;;;;5016653;28;20037;-55
2021/04/19 05:38:49;;;;;;;5.55;3.33;;;;;;;;;;5017738;28;20045;-53
2021/04/19 05:41:15;;;;;;;6.47;3.13;;;;;;;;;;5016068;28;20103;-57
2021/04/19 05:43:41;;;;;;;6.25;3.47;;;;;;;;;;5017064;28;20060;-53
2021/04/19 05:46:07;;;;;;;5.65;2.80;;;;;;;;;;5017399;28;20051;-56
2021/04/19 05:48:33;;;;;;;6.28;3.17;;;;;;;;;;5017617;28;20048;-57
2021/04/19 05:51:01;;;;;;;6.25;3.22;;;;;;;;;;5012978;28;20627;-56
2021/04/19 05:53:28;;;;;;;5.53;2.70;;;;;;;;;;5017507;28;22157;-56
2021/04/19 05:55:55;;;;;;;5.53;3.00;;;;;;;;;;5031455;28;20073;-56
2021/04/19 05:58:46;;;;;;;9.45;3.15;;;;;;;;;;5017610;28;21289;-57
2021/04/19 06:01:15;;;;;;;6.43;3.10;;;;;;;;;;5017301;28;20092;-55
2021/04/19 06:03:50;;;;;;;5.80;2.28;;;;;;;;;;5015425;28;20402;-57
2021/04/19 06:06:22;;;;;;;5.20;2.75;;;;;;;;;;5016977;28;20061;-55
2021/04/19 06:09:10;;;;;;;6.50;2.65;;;;;;;;;;5008826;28;20033;-57
2021/04/19 06:11:40;;;;;;;5.97;2.90;;;;;;;;;;5016010;28;20156;-56
2021/04/19 06:14:08;;;;;;;6.32;2.72;;;;;;;;;;5017136;28;20053;-57
2021/04/19 06:16:38;;;;;;;5.07;2.53;;;;;;;;;;5017491;28;20049;-56
2021/04/19 06:19:09;;;;;;;5.28;2.60;;;;;;;;;;5016950;28;20037;-55
2021/04/19 06:21:35;;;;;;;4.47;2.30;;;;;;;;;;5017184;28;20077;-55
2021/04/19 06:24:02;;;;;;;7.18;2.83;;;;;;;;;;5017924;28;20049;-56
2021/04/19 06:26:28;;;;;;;4.97;2.17;;;;;;;;;;5016160;28;20045;-53
2021/04/19 06:28:54;;;;;;;5.22;2.10;;;;;;;;;;5017784;28;20076;-55
2021/04/19 06:31:21;;;;;;;5.30;2.63;;;;;;;;;;5016265;28;20045;-55
2021/04/19 06:34:15;;;;;;;6.80;2.70;;;;;;;;;;5017996;28;20144;-56
2021/04/19 06:36:44;;;;;;;4.63;2.47;;;;;;;;;;4995904;28;20766;-55
2021/04/19 06:39:11;;;;;;;5.43;2.40;;;;;;;;;;5012125;28;20133;-53
2021/04/19 06:41:38;;;;;;;5.03;2.33;;;;;;;;;;5014199;28;20049;-56
2021/04/19 06:44:04;;;;;;;5.10;2.60;;;;;;;;;;5016465;28;20069;-54
2021/04/19 06:46:30;;;;;;;4.93;2.40;;;;;;;;;;5016249;28;20038;-56
2021/04/19 06:48:57;;;;;;;4.38;2.10;;;;;;;;;;5016989;28;20048;-54
2021/04/19 06:51:23;;;;;;;6.18;2.92;;;;;;;;;;5015979;28;20048;-55
2021/04/19 06:53:53;;;;;;;6.47;2.70;;;;;;;;;;5016548;28;20064;-55
2021/04/19 06:56:21;;;;;;;5.70;2.50;;;;;;;;;;5015421;28;20037;-54
2021/04/19 06:58:48;;;;;;;5.93;2.60;;;;;;;;;;5016974;28;20052;-54
2021/04/19 07:01:16;;;;;;;5.03;2.42;;;;;;;;;;5017075;28;20395;-56
2021/04/19 07:03:44;;;;;;;5.97;2.13;;;;;;;;;;5015900;28;20088;-55
2021/04/19 07:06:11;;;;;;;5.32;2.85;;;;;;;;;;5016370;28;20119;-55
2021/04/19 07:09:01;;;;;;;4.10;1.90;;;;;;;;;;5016442;28;20037;-53
2021/04/19 07:11:28;;;;;;;4.30;2.20;;;;;;;;;;5014314;28;20048;-56
2021/04/19 07:13:54;;;;;;;4.75;2.45;;;;;;;;;;5018000;28;20359;-54
2021/04/19 07:16:20;;;;;;;6.75;2.40;;;;;;;;;;5015142;28;20033;-53
2021/04/19 07:18:46;;;;;;;4.05;1.95;;;;;;;;;;5016319;28;20045;-57
2021/04/19 07:21:12;;;;;;;5.10;2.38;;;;;;;;;;5014911;28;20042;-54
2021/04/19 07:23:39;;;;;;;5.45;2.20;;;;;;;;;;5015802;28;20562;-56
2021/04/19 07:26:06;;;;;;;4.88;2.42;;;;;;;;;;5015677;28;20046;-54
2021/04/19 07:28:36;;;;;;;4.25;1.92;;;;;;;;;;5016807;28;20490;-56
2021/04/19 07:31:03;;;;;;;5.03;1.98;;;;;;;;;;5035763;28;20041;-56
2021/04/19 07:33:32;;;;;;;4.88;2.30;;;;;;;;;;5020690;28;20044;-55
2021/04/19 07:35:57;;;;;;;5.25;2.08;;;;;;;;;;5018203;28;20445;-55
2021/04/19 07:38:33;;;;;;;5.20;2.05;;;;;;;;;;5017038;28;20034;-54
2021/04/19 07:40:59;;;;;;;3.90;1.70;;;;;;;;;;5016308;28;20037;-55
2021/04/19 07:43:25;;;;;;;3.42;1.58;;;;;;;;;;5017148;28;20041;-56
2021/04/19 07:46:01;;;;;;;4.05;1.10;;;;;;;;;;5014910;28;20228;-55
2021/04/19 07:48:32;;;;;;;3.60;1.60;;;;;;;;;;5015643;28;20045;-54
2021/04/19 07:50:58;;;;;;;3.60;1.40;;;;;;;;;;5017164;28;20061;-53
2021/04/19 07:53:24;;;;;;;3.40;1.40;;;;;;;;;;5016574;28;20124;-56
2021/04/19 07:55:52;;;;;;;4.63;1.35;;;;;;;;;;5015111;28;20108;-56
2021/04/19 07:58:25;;;;;;;3.13;1.35;;;;;;;;;;5015915;28;20691;-56
2021/04/19 08:00:51;;;;;;;3.88;1.60;;;;;;;;;;5016873;28;20049;-56
2021/04/19 08:03:20;;;;;;;3.22;1.23;;;;;;;;;;5018988;28;20043;-56
2021/04/19 08:05:49;;;;;;;3.95;1.95;;;;;;;;;;5014293;28;20037;-55
2021/04/19 08:08:15;;;;;;;3.58;1.17;;;;;;;;;;5021229;28;20033;-53
2021/04/19 08:10:43;;;;;;;3.03;1.13;;;;;;;;;;5020269;28;20672;-55
2021/04/19 08:13:17;;;;;;;4.38;1.60;;;;;;;;;;5021894;28;20538;-56
2021/04/19 08:15:44;;;;;;;3.80;1.52;;;;;;;;;;5020155;28;20037;-55
2021/04/19 08:18:11;;;;;;;2.67;0.95;;;;;;;;;;5021302;28;20025;-54
2021/04/19 08:20:38;;;;;;;4.93;1.90;;;;;;;;;;5021239;28;20048;-53
2021/04/19 08:23:12;;;;;;;3.80;1.50;;;;;;;;;;5020224;28;20052;-53
2021/04/19 08:25:39;;;;;;;2.67;0.95;;;;;;;;;;5018405;28;20098;-56
2021/04/19 08:28:05;;;;;;;4.13;1.52;;;;;;;;;;5018732;28;20053;-56
2021/04/19 08:30:31;;;;;;;2.10;0.82;;;;;;;;;;5019561;28;20578;-53
2021/04/19 08:32:58;;;;;;;5.78;1.20;;;;;;;;;;5019943;28;20052;-54
2021/04/19 08:35:24;;;;;;;3.72;1.45;;;;;;;;;;5017920;28;20050;-56
2021/04/19 08:37:50;;;;;;;4.28;2.08;;;;;;;;;;5019280;28;20041;-55
2021/04/19 08:40:16;;;;;;;3.30;1.27;;;;;;;;;;5017703;28;20025;-57
2021/04/19 08:42:43;;;;;;;3.38;1.45;;;;;;;;;;5018219;28;20045;-55
2021/04/19 08:45:09;;;;;;;2.90;1.25;;;;;;;;;;5018027;28;20370;-57
2021/04/19 08:47:36;;;;;;;3.22;1.48;;;;;;;;;;5019363;28;20038;-56
2021/04/19 08:50:11;;;;;;;3.05;1.30;;;;;;;;;;5019372;28;20049;-53
2021/04/19 08:52:38;;;;;;;4.00;1.52;;;;;;;;;;5018441;28;20105;-53
2021/04/19 08:55:07;;;;;;;3.47;1.38;;;;;;;;;;5018885;28;20509;-53
2021/04/19 08:57:33;;;;;;;2.63;1.05;;;;;;;;;;5016715;28;20044;-54
2021/04/19 08:59:59;;;;;;;3.22;1.10;;;;;;;;;;5019110;28;20045;-54
2021/04/19 09:02:25;;;;;;;3.38;1.13;;;;;;;;;;5027513;28;20493;-56
2021/04/19 09:05:03;;;;;;;2.90;1.08;;;;;;;;;;5018263;28;20561;-53
2021/04/19 09:07:30;;;;;;;3.05;1.20;;;;;;;;;;5018688;28;20076;-56
2021/04/19 09:09:55;;;;;;;3.75;1.35;;;;;;;;;;5033972;28;20041;-53
2021/04/19 09:12:22;;;;;;;3.10;1.23;;;;;;;;;;5017495;28;20512;-53
2021/04/19 09:14:49;;;;;;;2.75;1.00;;;;;;;;;;5016911;28;20056;-56
2021/04/19 09:17:27;;;;;;;3.88;1.70;;;;;;;;;;5018042;28;20052;-56
2021/04/19 09:19:57;;;;;;;3.92;1.50;;;;;;;;;;5016617;28;20049;-56
2021/04/19 09:22:23;;;;;;;1.83;0.88;;;;;;;;;;5017831;28;20191;-55
2021/04/19 09:25:06;;;;;;;4.50;1.30;;;;;;;;;;5032830;28;20716;-55
2021/04/19 09:27:38;;;;;;;2.73;1.03;;;;;;;;;;5017738;28;20767;-55
2021/04/19 09:30:28;;;;;;;3.88;1.40;;;;;;;;;;5018900;28;20274;-54
2021/04/19 09:33:06;;;;;;;5.93;1.90;;;;;;;;;;5013964;28;20045;-53
2021/04/19 09:35:59;;;;;;;3.22;1.15;;;;;;;;;;5019609;28;20046;-55
2021/04/19 09:38:31;;;;;;;5.72;1.70;;;;;;;;;;5020833;28;20050;-55
2021/04/19 09:40:58;;;;;;;3.83;1.77;;;;;;;;;;5017635;28;22018;-56
2021/04/19 09:43:31;;;;;;;3.63;1.60;;;;;;;;;;5019882;28;20049;-54
2021/04/19 09:45:57;;;;;;;;;;;;;;;;;;5019049;28;20076;-55
2021/04/19 09:48:29;;;;;;;3.00;1.00;;;;;;;;;;5018801;28;19916;-56
2021/04/19 09:51:00;;;;;;;3.60;1.08;;;;;;;;;;5018932;28;20765;-56
2021/04/19 09:53:27;;;;;;;4.97;1.45;;;;;;;;;;5017989;28;20029;-53
2021/04/19 09:55:52;;;;;;;3.80;1.40;;;;;;;;;;5017606;28;20527;-55
2021/04/19 09:58:19;;;;;;;3.28;1.08;;;;;;;;;;5016864;28;20037;-53
2021/04/19 10:00:46;;;;;;;3.58;1.38;;;;;;;;;;5017105;28;20038;-54
2021/04/19 10:03:12;;;;;;;2.55;0.90;;;;;;;;;;5018030;28;20144;-53
2021/04/19 10:05:40;;;;;;;3.28;1.30;;;;;;;;;;5017462;28;20661;-54
2021/04/19 10:08:06;;;;;;;4.88;1.38;;;;;;;;;;5017576;28;20041;-52
2021/04/19 10:10:33;;;;;;;3.30;1.40;;;;;;;;;;5017051;28;20041;-56
2021/04/19 10:12:59;;;;;;;3.25;1.10;;;;;;;;;;5016928;28;20038;-57
2021/04/19 10:15:26;;;;;;;3.35;1.05;;;;;;;;;;5016912;28;20160;-57
2021/04/19 10:17:53;;;;;;;4.10;1.50;;;;;;;;;;5017715;28;20045;-57
2021/04/19 10:20:25;;;;;;;3.85;1.30;;;;;;;;;;5016613;28;20064;-57
2021/04/19 10:23:09;;;;;;;5.97;1.52;;;;;;;;;;5015237;28;20059;-54
2021/04/19 10:25:44;;;;;;;3.85;1.23;;;;;;;;;;5014747;28;20169;-55
2021/04/19 10:28:10;;;;;;;2.28;0.95;;;;;;;;;;5014438;28;20509;-54
2021/04/19 10:30:36;;;;;;;3.40;1.05;;;;;;;;;;5016274;28;20080;-55
2021/04/19 10:33:02;;;;;;;3.33;1.00;;;;;;;;;;5016426;28;20132;-53
2021/04/19 10:35:39;;;;;;;3.10;1.27;;;;;;;;;;5015453;28;20042;-54
2021/04/19 10:38:05;;;;;;;3.47;1.20;;;;;;;;;;5018174;28;20493;-54
2021/04/19 10:40:31;;;;;;;4.88;1.33;;;;;;;;;;5014689;28;20040;-54
2021/04/19 10:43:11;;;;;;;2.95;1.10;;;;;;;;;;5016430;28;20085;-55
2021/04/19 10:45:39;;;;;;;2.90;1.20;;;;;;;;;;5015290;28;20045;-55
2021/04/19 10:48:15;;;;;;;3.22;1.20;;;;;;;;;;5017194;28;20493;-54
2021/04/19 10:50:41;;;;;;;2.55;0.82;;;;;;;;;;5016035;28;20053;-53
2021/04/19 10:53:07;;;;;;;2.78;1.02;;;;;;;;;;5016154;28;22749;-56
2021/04/19 10:55:33;;;;;;;3.03;1.00;;;;;;;;;;5015275;28;20045;-55
2021/04/19 10:57:59;;;;;;;3.78;1.20;;;;;;;;;;5016673;28;20052;-56
2021/04/19 11:00:25;;;;;;;3.85;1.20;;;;;;;;;;5016913;28;20072;-53
2021/04/19 11:02:52;;;;;;;3.40;1.17;;;;;;;;;;5016499;28;20374;-54
2021/04/19 11:05:19;;;;;;;4.38;1.40;;;;;;;;;;5016476;28;20088;-54
2021/04/19 11:07:45;;;;;;;6.05;1.05;;;;;;;;;;5016555;28;20115;-56
2021/04/19 11:10:16;;;;;;;3.28;1.00;;;;;;;;;;5015453;28;20514;-56
2021/04/19 11:12:59;;;;;;;4.88;1.30;;;;;;;;;;5015295;28;20049;-57
2021/04/19 11:15:32;;;;;;;2.20;0.82;;;;;;;;;;5015118;28;20052;-56
2021/04/19 11:17:58;;;;;;;2.03;0.70;;;;;;;;;;5016115;28;20128;-55
2021/04/19 11:20:31;;;;;;;3.03;0.70;;;;;;;;;;5016059;28;20045;-57
2021/04/19 11:23:00;;;;;;;4.85;1.50;;;;;;;;;;5015718;28;20056;-56
2021/04/19 11:25:28;;;;;;;2.55;0.88;;;;;;;;;;5014853;28;20080;-55
2021/04/19 11:28:13;;;;;;;2.58;0.77;;;;;;;;;;5017089;28;20162;-56
2021/04/19 11:30:39;;;;;;;4.20;0.98;;;;;;;;;;5016608;28;20099;-57
2021/04/19 11:33:05;;;;;;;4.03;1.00;;;;;;;;;;5016867;28;20059;-56
2021/04/19 11:35:36;;;;;;;2.47;0.88;;;;;;;;;;5016838;28;20860;-56
2021/04/19 11:38:03;;;;;;;2.80;0.90;;;;;;;;;;5020184;28;20676;-55
2021/04/19 11:40:36;;;;;;;2.97;1.00;;;;;;;;;;5020178;28;20500;-57
2021/04/19 11:43:21;;;;;;;3.92;0.95;;;;;;;;;;5022195;28;20162;-56
2021/04/19 11:45:47;;;;;;;2.80;0.90;;;;;;;;;;5019217;28;20049;-57
2021/04/19 11:48:13;;;;;;;4.72;1.05;;;;;;;;;;5024515;28;20049;-55
2021/04/19 11:50:40;;;;;;;2.72;1.00;;;;;;;;;;5020851;28;20037;-57
2021/04/19 11:53:06;;;;;;;3.45;1.08;;;;;;;;;;5020623;28;20116;-54
2021/04/19 11:55:32;;;;;;;2.85;0.93;;;;;;;;;;5020449;28;20045;-55
2021/04/19 11:57:58;;;;;;;3.10;0.90;;;;;;;;;;5021219;28;20075;-57
2021/04/19 12:00:25;;;;;;;3.13;1.00;;;;;;;;;;5020754;28;20522;-56
2021/04/19 12:02:51;;;;;;;3.20;0.95;;;;;;;;;;5020357;28;20087;-54
2021/04/19 12:05:17;;;;;;;2.92;0.88;;;;;;;;;;5021268;28;20045;-53
2021/04/19 12:07:43;;;;;;;2.60;0.90;;;;;;;;;;5012392;28;20034;-56
2021/04/19 12:10:09;;;;;;;4.10;0.90;;;;;;;;;;5021965;28;20044;-55
2021/04/19 12:12:35;;;;;;;3.35;1.13;;;;;;;;;;5020824;28;20477;-55
2021/04/19 12:15:01;;;;;;;2.45;0.80;;;;;;;;;;5021959;28;20087;-55
2021/04/19 12:17:27;;;;;;;5.55;1.10;;;;;;;;;;5022124;28;20042;-55
2021/04/19 12:19:53;;;;;;;3.65;1.02;;;;;;;;;;5022619;28;20094;-53
2021/04/19 12:22:19;;;;;;;2.72;0.90;;;;;;;;;;5020413;28;20741;-56
2021/04/19 12:24:45;;;;;;;2.30;0.70;;;;;;;;;;5021947;28;20053;-56
2021/04/19 12:27:10;;;;;;;4.60;1.15;;;;;;;;;;5019690;28;20097;-56
2021/04/19 12:29:36;;;;;;;3.63;0.90;;;;;;;;;;5020902;28;20034;-56
2021/04/19 12:32:02;;;;;;;3.92;1.15;;;;;;;;;;5016586;28;20061;-55
2021/04/19 12:34:28;;;;;;;5.53;1.00;;;;;;;;;;5019610;28;20088;-55
2021/04/19 12:36:55;;;;;;;3.25;1.10;;;;;;;;;;5018848;28;20044;-56
2021/04/19 12:39:21;;;;;;;3.28;1.00;;;;;;;;;;5020401;28;20048;-56
2021/04/19 12:41:48;;;;;;;2.90;0.98;;;;;;;;;;5014062;28;20046;-53
2021/04/19 12:44:14;;;;;;;5.00;1.20;;;;;;;;;;5006772;28;20053;-56
2021/04/19 12:46:40;;;;;;;4.53;1.25;;;;;;;;;;5018231;28;20725;-56
2021/04/19 12:49:06;;;;;;;3.20;0.98;;;;;;;;;;5020172;28;20609;-55
2021/04/19 12:51:33;;;;;;;3.13;1.05;;;;;;;;;;5017122;28;20041;-55
2021/04/19 12:53:58;;;;;;;5.40;1.10;;;;;;;;;;5004314;28;20041;-52
2021/04/19 12:56:24;;;;;;;3.42;1.13;;;;;;;;;;5019953;28;20064;-56
2021/04/19 12:58:50;;;;;;;3.05;1.00;;;;;;;;;;5018664;28;20057;-54
2021/04/19 13:01:16;;;;;;;2.72;1.08;;;;;;;;;;5019197;28;20034;-53
2021/04/19 13:03:42;;;;;;;3.00;1.10;;;;;;;;;;5017577;28;20593;-56
2021/04/19 13:06:08;;;;;;;7.75;1.20;;;;;;;;;;5018690;28;20631;-52
2021/04/19 13:08:34;;;;;;;6.13;1.20;;;;;;;;;;5017540;28;20037;-55
2021/04/19 13:11:00;;;;;;;3.33;1.02;;;;;;;;;;5019166;28;20068;-53
2021/04/19 13:13:26;;;;;;;2.90;0.93;;;;;;;;;;5017987;28;20033;-55
2021/04/19 13:15:52;;;;;;;2.80;0.80;;;;;;;;;;5019971;28;20049;-55
2021/04/19 13:18:18;;;;;;;3.85;1.00;;;;;;;;;;5018777;28;20029;-55
2021/04/19 13:20:44;;;;;;;2.70;0.82;;;;;;;;;;5018506;28;20055;-52
2021/04/19 13:23:09;;;;;;;2.80;0.80;;;;;;;;;;5018733;28;20140;-54
2021/04/19 13:25:35;;;;;;;3.80;0.90;;;;;;;;;;5034808;28;20080;-53
2021/04/19 13:28:02;;;;;;;4.32;1.02;;;;;;;;;;5018328;28;20041;-53
2021/04/19 13:30:28;;;;;;;2.72;1.00;;;;;;;;;;5019840;28;20056;-56
2021/04/19 13:32:54;;;;;;;2.50;0.80;;;;;;;;;;5035197;28;20046;-55
2021/04/19 13:35:20;;;;;;;2.92;0.90;;;;;;;;;;5018311;28;20079;-54
2021/04/19 13:37:47;;;;;;;5.60;1.23;;;;;;;;;;5018975;28;20529;-53
2021/04/19 13:40:14;;;;;;;3.33;1.15;;;;;;;;;;5015383;28;20056;-53
2021/04/19 13:42:40;;;;;;;3.67;1.00;;;;;;;;;;5019359;28;20060;-56
2021/04/19 13:45:07;;;;;;;5.22;1.40;;;;;;;;;;5022870;28;20053;-57
2021/04/19 13:47:33;;;;;;;3.63;0.93;;;;;;;;;;5040518;28;20029;-55
2021/04/19 13:49:59;;;;;;;3.60;0.82;;;;;;;;;;5030133;28;20052;-55
2021/04/19 13:52:26;;;;;;;4.13;1.10;;;;;;;;;;5021673;28;20044;-55
2021/04/19 13:54:53;;;;;;;5.30;1.10;;;;;;;;;;5021396;28;20072;-53
2021/04/19 13:57:19;;;;;;;2.83;0.90;;;;;;;;;;5019565;28;20052;-54
2021/04/19 13:59:45;;;;;;;3.55;1.08;;;;;;;;;;5020521;28;20049;-53
2021/04/19 14:02:11;;;;;;;6.10;1.20;;;;;;;;;;5020201;28;20052;-54
2021/04/19 14:04:37;;;;;;;5.97;1.15;;;;;;;;;;5017074;28;20045;-57
2021/04/19 14:07:02;;;;;;;2.88;0.98;;;;;;;;;;5022564;28;20133;-56
2021/04/19 14:09:28;;;;;;;2.72;0.90;;;;;;;;;;5018636;28;20141;-55
2021/04/19 14:11:54;;;;;;;3.03;0.73;;;;;;;;;;5020655;28;20029;-56
2021/04/19 14:14:20;;;;;;;4.88;1.42;;;;;;;;;;5020948;28;20065;-56
2021/04/19 14:16:46;;;;;;;4.10;1.10;;;;;;;;;;5021661;28;20535;-54
2021/04/19 14:19:12;;;;;;;4.65;1.10;;;;;;;;;;5018705;28;20052;-55
2021/04/19 14:21:39;;;;;;;3.55;1.10;;;;;;;;;;5012978;28;20084;-55
2021/04/19 14:24:07;;;;;;;3.33;1.00;;;;;;;;;;5018431;28;20057;-53
2021/04/19 14:26:34;;;;;;;3.08;1.02;;;;;;;;;;5015177;28;20565;-55
2021/04/19 14:29:00;;;;;;;3.50;1.10;;;;;;;;;;5018592;28;20121;-52
2021/04/19 14:31:26;;;;;;;5.38;1.13;;;;;;;;;;5016576;28;20049;-57
2021/04/19 14:33:52;;;;;;;2.78;0.95;;;;;;;;;;5016746;28;20037;-53
2021/04/19 14:36:17;;;;;;;7.05;0.98;;;;;;;;;;5017928;28;20037;-57
2021/04/19 14:38:43;;;;;;;6.50;1.30;;;;;;;;;;5017292;28;20041;-56
2021/04/19 14:41:09;;;;;;;4.35;1.00;;;;;;;;;;5016566;28;20038;-57
2021/04/19 14:43:35;;;;;;;2.53;0.80;;;;;;;;;;5015711;28;20103;-57
2021/04/19 14:46:01;;;;;;;4.63;1.10;;;;;;;;;;5007379;28;20048;-56